Observation data for Sundown on 04/23/2019      Previous  Date  Next       Current Mesonet Observations  Soil Data  Daily Summary Page  Observations in Plain Language
KSDS 230500Z 04013G18KT 13/11 A3006 RMK A01 T01290111  RH  092%=      5-min Rain = 0
KSDS 230505Z 04011G16KT 13/11 A3006 RMK A01 T01290110  RH  092%=      5-min Rain = 0
KSDS 230510Z 04011KT 13/11 A3006 RMK A01 T01280111  RH  092%=      5-min Rain = 0
KSDS 230515Z 05010G15KT 13/11 A3006 RMK A01 T01280111  RH  092%=      5-min Rain = 0
KSDS 230520Z 04010G15KT 13/11 A3007 RMK A01 T01280111  RH  092%=      5-min Rain = 0
KSDS 230525Z 04012KT 13/11 A3006 RMK A01 T01270109  RH  092%=      5-min Rain = 0
KSDS 230530Z 04013KT 13/11 A3006 RMK A01 T01260109  RH  092%=      5-min Rain = 0
KSDS 230535Z 04012G17KT 13/11 A3005 RMK A01 T01250109  RH  093%=      5-min Rain = 0
KSDS 230540Z 04012G18KT 13/11 A3005 RMK A01 T01250109  RH  094%=      5-min Rain = 0
KSDS 230545Z 04012KT 12/11 A3005 RMK A01 T01240109  RH  094%=      5-min Rain = 0
KSDS 230550Z 04011KT 12/11 A3005 RMK A01 T01240110  RH  095%=      5-min Rain = 0
KSDS 230555Z 03010KT 12/11 A3005 RMK A01 T01240111  RH  095%=      5-min Rain = 0
KSDS 230600Z 03009KT 12/11 A3006 RMK A01 T01240111  RH  095%=      5-min Rain = 0
KSDS 230605Z 03008KT 12/11 A3006 RMK A01 T01240111  RH  096%=      5-min Rain = 0
KSDS 230610Z 03005KT 12/11 A3006 RMK A01 T01240112  RH  096%=      5-min Rain = 0
KSDS 230615Z 03007KT 12/11 A3006 RMK A01 T01230112  RH  096%=      5-min Rain = 0
KSDS 230620Z 02007KT 12/11 A3006 RMK A01 T01230112  RH  096%=      5-min Rain = 0.01
KSDS 230625Z 01005KT 12/11 A3006 RMK A01 T01230112  RH  097%=      5-min Rain = 0
KSDS 230630Z 01006KT 12/11 A3007 RMK A01 T01220112  RH  097%=      5-min Rain = 0
KSDS 230635Z 02007KT 12/11 A3007 RMK A01 T01220112  RH  097%=      5-min Rain = 0
KSDS 230640Z 02009KT 12/11 A3007 RMK A01 T01210112  RH  097%=      5-min Rain = 0
KSDS 230645Z 03010KT 12/11 A3006 RMK A01 T01210111  RH  097%=      5-min Rain = 0.02
KSDS 230650Z 03009KT 12/11 A3006 RMK A01 T01200111  RH  098%=      5-min Rain = 0
KSDS 230655Z 03010KT 12/11 A3005 RMK A01 T01210112  RH  098%=      5-min Rain = 0
KSDS 230700Z 03009KT 12/11 A3006 RMK A01 T01200112  RH  098%=      5-min Rain = 0
KSDS 230705Z 00007KT 12/11 A3006 RMK A01 T01200112  RH  098%=      5-min Rain = 0
KSDS 230710Z 31009KT 12/11 A3007 RMK A01 T01200112  RH  098%=      5-min Rain = 0.01
KSDS 230715Z 31012KT 12/11 A3006 RMK A01 T01210113  RH  098%=      5-min Rain = 0
KSDS 230720Z 35013KT 12/11 A3006 RMK A01 T01200112  RH  098%=      5-min Rain = 0
KSDS 230725Z 01013KT 12/11 A3005 RMK A01 T01200111  RH  097%=      5-min Rain = 0
KSDS 230730Z 36011G18KT 12/11 A3006 RMK A01 T01200110  RH  097%=      5-min Rain = 0
KSDS 230735Z 34010KT 12/11 A3006 RMK A01 T01200111  RH  097%=      5-min Rain = 0
KSDS 230740Z 34009KT 12/11 A3006 RMK A01 T01200111  RH  097%=      5-min Rain = 0
KSDS 230745Z 35010KT 12/11 A3006 RMK A01 T01200111  RH  097%=      5-min Rain = 0
KSDS 230750Z 01012G17KT 12/11 A3006 RMK A01 T01190110  RH  097%=      5-min Rain = 0
KSDS 230755Z 01014KT 12/11 A3005 RMK A01 T01190110  RH  097%=      5-min Rain = 0
KSDS 230800Z 36013KT 12/11 A3005 RMK A01 T01190110  RH  097%=      5-min Rain = 0
KSDS 230805Z 35011KT 12/11 A3006 RMK A01 T01190110  RH  097%=      5-min Rain = 0
KSDS 230810Z 34011KT 12/11 A3007 RMK A01 T01190110  RH  098%=      5-min Rain = 0
KSDS 230815Z 31013KT 12/11 A3007 RMK A01 T01190111  RH  098%=      5-min Rain = 0.11
KSDS 230820Z 35011G16KT 12/11 A3007 RMK A01 T01180110  RH  098%=      5-min Rain = 0.06
KSDS 230825Z 36011G17KT 12/11 A3007 RMK A01 T01180110  RH  098%=      5-min Rain = 0.02
KSDS 230830Z 00011KT 12/11 A3006 RMK A01 T01170110  RH  099%=      5-min Rain = 0.02
KSDS 230835Z 00011KT 12/11 A3005 RMK A01 T01170111  RH  100%=      5-min Rain = 0.02
KSDS 230840Z 02014G19KT 12/11 A3004 RMK A01 T01170111  RH  100%=      5-min Rain = 0.02
KSDS 230845Z 01014KT 12/11 A3003 RMK A01 T01160111  RH  100%=      5-min Rain = 0.02
KSDS 230850Z 02013KT 12/11 A3003 RMK A01 T01160111  RH  100%=      5-min Rain = 0.01
KSDS 230855Z 03011G16KT 12/11 A3002 RMK A01 T01160111  RH  100%=      5-min Rain = 0
KSDS 230900Z 03012G17KT 12/11 A3001 RMK A01 T01160111  RH  100%=      5-min Rain = 0
KSDS 230905Z 02013KT 12/11 A3001 RMK A01 T01160111  RH  100%=      5-min Rain = 0
KSDS 230910Z 02012KT 12/11 A3002 RMK A01 T01160111  RH  100%=      5-min Rain = 0
KSDS 230915Z 03012KT 12/11 A3001 RMK A01 T01160111  RH  100%=      5-min Rain = 0
KSDS 230920Z 02013KT 12/11 A3001 RMK A01 T01160110  RH  100%=      5-min Rain = 0
KSDS 230925Z 02010KT 12/11 A3002 RMK A01 T01160110  RH  100%=      5-min Rain = 0
KSDS 230930Z 02010KT 12/11 A3002 RMK A01 T01160110  RH  100%=      5-min Rain = 0
KSDS 230935Z 02009KT 12/11 A3002 RMK A01 T01150110  RH  100%=      5-min Rain = 0
KSDS 230940Z 01009KT 12/11 A3002 RMK A01 T01160110  RH  100%=      5-min Rain = 0
KSDS 230945Z 02008KT 12/11 A3002 RMK A01 T01160110  RH  100%=      5-min Rain = 0
KSDS 230950Z 02006KT 12/11 A3002 RMK A01 T01150110  RH  100%=      5-min Rain = 0
KSDS 230955Z 01006KT 11/11 A3003 RMK A01 T01140109  RH  100%=      5-min Rain = 0
KSDS 231000Z 00006KT 11/11 A3003 RMK A01 T01140109  RH  100%=      5-min Rain = 0
KSDS 231005Z 36004KT 11/11 A3004 RMK A01 T01140109  RH  100%=      5-min Rain = 0
KSDS 231010Z 36004KT 11/11 A3004 RMK A01 T01130108  RH  100%=      5-min Rain = 0
KSDS 231015Z 34003KT 11/11 A3004 RMK A01 T01130108  RH  100%=      5-min Rain = 0
KSDS 231020Z 32005KT 11/11 A3005 RMK A01 T01140109  RH  100%=      5-min Rain = 0
KSDS 231025Z 32007KT 11/11 A3005 RMK A01 T01140109  RH  100%=      5-min Rain = 0
KSDS 231030Z 33005KT 11/11 A3005 RMK A01 T01140109  RH  100%=      5-min Rain = 0
KSDS 231035Z 33006KT 12/11 A3006 RMK A01 T01150110  RH  100%=      5-min Rain = 0
KSDS 231040Z 32008KT 12/11 A3006 RMK A01 T01150110  RH  100%=      5-min Rain = 0
KSDS 231045Z 33010KT 12/11 A3006 RMK A01 T01150110  RH  100%=      5-min Rain = 0
KSDS 231050Z 33011KT 12/11 A3006 RMK A01 T01150109  RH  100%=      5-min Rain = 0
KSDS 231055Z 35012KT 11/11 A3005 RMK A01 T01130108  RH  100%=      5-min Rain = 0
KSDS 231100Z 35010G15KT 11/11 A3005 RMK A01 T01130108  RH  100%=      5-min Rain = 0
KSDS 231105Z 35010KT 11/11 A3005 RMK A01 T01120107  RH  100%=      5-min Rain = 0
KSDS 231110Z 35010KT 11/11 A3005 RMK A01 T01120107  RH  100%=      5-min Rain = 0
KSDS 231115Z 35010KT 11/11 A3005 RMK A01 T01120107  RH  100%=      5-min Rain = 0
KSDS 231120Z 35011KT 11/11 A3005 RMK A01 T01120107  RH  100%=      5-min Rain = 0
KSDS 231125Z 35010KT 11/11 A3006 RMK A01 T01120107  RH  100%=      5-min Rain = 0.01
KSDS 231130Z 36009KT 11/11 A3007 RMK A01 T01120106  RH  099%=      5-min Rain = 0
KSDS 231135Z 01009KT 11/11 A3006 RMK A01 T01120106  RH  099%=      5-min Rain = 0
KSDS 231140Z 02011KT 11/11 A3005 RMK A01 T01110105  RH  099%=      5-min Rain = 0.01
KSDS 231145Z 02011KT 11/11 A3005 RMK A01 T01110105  RH  099%=      5-min Rain = 0
KSDS 231150Z 02011KT 11/10 A3005 RMK A01 T01090103  RH  100%=      5-min Rain = 0
KSDS 231155Z 02012G17KT 11/10 A3005 RMK A01 T01080102  RH  100%=      5-min Rain = 0
KSDS 231200Z 02013G18KT 11/10 A3004 RMK A01 T01070102  RH  100%=      5-min Rain = 0
KSDS 231205Z 02013KT 11/10 A3004 RMK A01 T01070101  RH  100%=      5-min Rain = 0
KSDS 231210Z 02013G18KT 11/10 A3004 RMK A01 T01060101  RH  100%=      5-min Rain = 0
KSDS 231215Z 02013G18KT 11/10 A3004 RMK A01 T01060100  RH  100%=      5-min Rain = 0
KSDS 231220Z 02012KT 11/10 A3004 RMK A01 T01050100  RH  100%=      5-min Rain = 0
KSDS 231225Z 02011KT 11/10 A3004 RMK A01 T01050100  RH  100%=      5-min Rain = 0
KSDS 231230Z 02011KT 11/10 A3005 RMK A01 T01050100  RH  100%=      5-min Rain = 0
KSDS 231235Z 03011G16KT 11/10 A3004 RMK A01 T01050100  RH  100%=      5-min Rain = 0
KSDS 231240Z 03009KT 11/10 A3005 RMK A01 T01050100  RH  100%=      5-min Rain = 0
KSDS 231245Z 02009KT 11/10 A3005 RMK A01 T01050100  RH  100%=      5-min Rain = 0
KSDS 231250Z 02009KT 11/10 A3005 RMK A01 T01050100  RH  100%=      5-min Rain = 0
KSDS 231255Z 03008KT 11/10 A3005 RMK A01 T01050100  RH  100%=      5-min Rain = 0
KSDS 231300Z 04009KT 11/10 A3006 RMK A01 T01060101  RH  100%=      5-min Rain = 0
KSDS 231305Z 04010KT 11/10 A3006 RMK A01 T01070102  RH  100%=      5-min Rain = 0
KSDS 231310Z 04009KT 11/10 A3006 RMK A01 T01080103  RH  100%=      5-min Rain = 0
KSDS 231315Z 03010KT 11/10 A3005 RMK A01 T01090104  RH  100%=      5-min Rain = 0
KSDS 231320Z 02011KT 11/11 A3005 RMK A01 T01100105  RH  100%=      5-min Rain = 0
KSDS 231325Z 03011KT 11/11 A3006 RMK A01 T01100105  RH  100%=      5-min Rain = 0
KSDS 231330Z 03012KT 11/11 A3006 RMK A01 T01100105  RH  100%=      5-min Rain = 0
KSDS 231335Z 02012KT 11/11 A3006 RMK A01 T01120106  RH  100%=      5-min Rain = 0
KSDS 231340Z 02013G18KT 11/11 A3006 RMK A01 T01130106  RH  099%=      5-min Rain = 0
KSDS 231345Z 02013G18KT 11/11 A3007 RMK A01 T01130106  RH  099%=      5-min Rain = 0
KSDS 231350Z 02013KT 11/11 A3007 RMK A01 T01140106  RH  098%=      5-min Rain = 0
KSDS 231355Z 02012KT 12/11 A3007 RMK A01 T01150107  RH  098%=      5-min Rain = 0
KSDS 231400Z 02012KT 12/11 A3008 RMK A01 T01160107  RH  098%=      5-min Rain = 0
KSDS 231405Z 02012KT 12/11 A3008 RMK A01 T01170108  RH  098%=      5-min Rain = 0
KSDS 231410Z 01013G18KT 12/11 A3007 RMK A01 T01180109  RH  097%=      5-min Rain = 0
KSDS 231415Z 02013G18KT 12/11 A3008 RMK A01 T01190108  RH  097%=      5-min Rain = 0
KSDS 231420Z 02012G17KT 12/11 A3008 RMK A01 T01190108  RH  096%=      5-min Rain = 0
KSDS 231425Z 02013G18KT 12/11 A3008 RMK A01 T01190107  RH  096%=      5-min Rain = 0
KSDS 231430Z 02014KT 12/11 A3008 RMK A01 T01190106  RH  095%=      5-min Rain = 0
KSDS 231435Z 03014G19KT 12/11 A3008 RMK A01 T01190106  RH  095%=      5-min Rain = 0
KSDS 231440Z 04013KT 12/11 A3008 RMK A01 T01190106  RH  095%=      5-min Rain = 0
KSDS 231445Z 04012KT 12/11 A3008 RMK A01 T01190106  RH  095%=      5-min Rain = 0
KSDS 231450Z 03011KT 12/11 A3009 RMK A01 T01210107  RH  095%=      5-min Rain = 0
KSDS 231455Z 03015G20KT 12/11 A3008 RMK A01 T01210106  RH  094%=      5-min Rain = 0
KSDS 231500Z 03012KT 12/11 A3008 RMK A01 T01220106  RH  093%=      5-min Rain = 0
KSDS 231505Z 03013KT 12/11 A3008 RMK A01 T01220107  RH  094%=      5-min Rain = 0
KSDS 231510Z 03013KT 12/11 A3008 RMK A01 T01220107  RH  093%=      5-min Rain = 0
KSDS 231515Z 03013G18KT 12/11 A3008 RMK A01 T01230107  RH  093%=      5-min Rain = 0
KSDS 231520Z 03012G17KT 12/11 A3008 RMK A01 T01240108  RH  093%=      5-min Rain = 0
KSDS 231525Z 03012G18KT 13/11 A3008 RMK A01 T01270110  RH  093%=      5-min Rain = 0
KSDS 231530Z 04013KT 13/11 A3008 RMK A01 T01270109  RH  092%=      5-min Rain = 0
KSDS 231535Z 04012KT 13/11 A3008 RMK A01 T01290110  RH  091%=      5-min Rain = 0
KSDS 231540Z 03013KT 13/11 A3008 RMK A01 T01280108  RH  091%=      5-min Rain = 0
KSDS 231545Z 04013G18KT 13/11 A3008 RMK A01 T01280109  RH  091%=      5-min Rain = 0
KSDS 231550Z 04013KT 13/11 A3008 RMK A01 T01320109  RH  089%=      5-min Rain = 0
KSDS 231555Z 04012KT 14/11 A3007 RMK A01 T01370113  RH  089%=      5-min Rain = 0
KSDS 231600Z 05014KT 14/11 A3007 RMK A01 T01410113  RH  086%=      5-min Rain = 0
KSDS 231605Z 04015KT 14/11 A3007 RMK A01 T01420111  RH  085%=      5-min Rain = 0
KSDS 231610Z 05014G19KT 14/11 A3007 RMK A01 T01440111  RH  083%=      5-min Rain = 0
KSDS 231615Z 04015KT 14/11 A3007 RMK A01 T01440108  RH  082%=      5-min Rain = 0
KSDS 231620Z 04015KT 14/11 A3008 RMK A01 T01420107  RH  082%=      5-min Rain = 0
KSDS 231625Z 05012KT 14/11 A3008 RMK A01 T01440107  RH  081%=      5-min Rain = 0
KSDS 231630Z 04012KT 15/11 A3008 RMK A01 T01450107  RH  081%=      5-min Rain = 0
KSDS 231635Z 04012G17KT 14/11 A3008 RMK A01 T01440106  RH  081%=      5-min Rain = 0
KSDS 231640Z 03010G16KT 15/11 A3009 RMK A01 T01470108  RH  080%=      5-min Rain = 0
KSDS 231645Z 03012KT 15/11 A3009 RMK A01 T01480106  RH  079%=      5-min Rain = 0
KSDS 231650Z 04012KT 15/10 A3009 RMK A01 T01470102  RH  077%=      5-min Rain = 0
KSDS 231655Z 03011KT 15/10 A3009 RMK A01 T01500104  RH  077%=      5-min Rain = 0
KSDS 231700Z 04012KT 15/11 A3008 RMK A01 T01530105  RH  075%=      5-min Rain = 0
KSDS 231705Z 04012KT 16/11 A3008 RMK A01 T01560108  RH  075%=      5-min Rain = 0
KSDS 231710Z 04010KT 16/11 A3008 RMK A01 T01560107  RH  075%=      5-min Rain = 0
KSDS 231715Z 04012KT 16/11 A3008 RMK A01 T01570107  RH  075%=      5-min Rain = 0
KSDS 231720Z 03012KT 15/11 A3008 RMK A01 T01540106  RH  076%=      5-min Rain = 0
KSDS 231725Z 04012KT 16/11 A3008 RMK A01 T01550105  RH  074%=      5-min Rain = 0
KSDS 231730Z 04012KT 16/11 A3008 RMK A01 T01590108  RH  074%=      5-min Rain = 0
KSDS 231735Z 04012KT 16/11 A3007 RMK A01 T01610106  RH  072%=      5-min Rain = 0
KSDS 231740Z 03013KT 16/11 A3007 RMK A01 T01590109  RH  075%=      5-min Rain = 0
KSDS 231745Z 03013KT 16/11 A3007 RMK A01 T01590106  RH  073%=      5-min Rain = 0
KSDS 231750Z 04013KT 16/11 A3007 RMK A01 T01560105  RH  074%=      5-min Rain = 0
KSDS 231755Z 04010KT 16/11 A3007 RMK A01 T01570106  RH  074%=      5-min Rain = 0
KSDS 231800Z 04012KT 16/10 A3007 RMK A01 T01580104  RH  073%=      5-min Rain = 0
KSDS 231805Z 04010KT 16/11 A3008 RMK A01 T01580106  RH  074%=      5-min Rain = 0
KSDS 231810Z 04011KT 16/10 A3007 RMK A01 T01560104  RH  074%=      5-min Rain = 0
KSDS 231815Z 04010KT 16/11 A3007 RMK A01 T01570105  RH  074%=      5-min Rain = 0
KSDS 231820Z 04011KT 16/11 A3007 RMK A01 T01590106  RH  073%=      5-min Rain = 0
KSDS 231825Z 04010KT 16/11 A3007 RMK A01 T01590105  RH  073%=      5-min Rain = 0
KSDS 231830Z 04009KT 16/10 A3007 RMK A01 T01590104  RH  072%=      5-min Rain = 0
KSDS 231835Z 04008KT 17/11 A3007 RMK A01 T01650105  RH  070%=      5-min Rain = 0
KSDS 231840Z 05010G15KT 17/10 A3007 RMK A01 T01690103  RH  067%=      5-min Rain = 0
KSDS 231845Z 05009KT 17/11 A3007 RMK A01 T01730106  RH  067%=      5-min Rain = 0
KSDS 231850Z 04009KT 17/11 A3007 RMK A01 T01700107  RH  068%=      5-min Rain = 0
KSDS 231855Z 04009G14KT 17/11 A3006 RMK A01 T01670106  RH  070%=      5-min Rain = 0
KSDS 231900Z 04010G15KT 17/11 A3006 RMK A01 T01670107  RH  070%=      5-min Rain = 0
KSDS 231905Z 02012KT 17/11 A3006 RMK A01 T01650109  RH  072%=      5-min Rain = 0
KSDS 231910Z 01010G16KT 17/11 A3006 RMK A01 T01660114  RH  074%=      5-min Rain = 0
KSDS 231915Z 36013KT 16/12 A3006 RMK A01 T01610116  RH  078%=      5-min Rain = 0
KSDS 231920Z 00013KT 16/12 A3006 RMK A01 T01590116  RH  079%=      5-min Rain = 0
KSDS 231925Z 01013KT 15/11 A3006 RMK A01 T01530113  RH  080%=      5-min Rain = 0
KSDS 231930Z 01011KT 15/11 A3006 RMK A01 T01540114  RH  080%=      5-min Rain = 0
KSDS 231935Z 01012KT 16/12 A3006 RMK A01 T01590116  RH  078%=      5-min Rain = 0
KSDS 231940Z 00013G18KT 15/11 A3006 RMK A01 T01530114  RH  080%=      5-min Rain = 0
KSDS 231945Z 01013KT 15/11 A3006 RMK A01 T01510112  RH  080%=      5-min Rain = 0
KSDS 231950Z 01012KT 15/11 A3006 RMK A01 T01500112  RH  081%=      5-min Rain = 0
KSDS 231955Z 01011KT 15/11 A3006 RMK A01 T01490112  RH  081%=      5-min Rain = 0
KSDS 232000Z 02012KT 15/11 A3006 RMK A01 T01480111  RH  081%=      5-min Rain = 0
KSDS 232005Z 01010KT 15/11 A3006 RMK A01 T01480112  RH  081%=      5-min Rain = 0
KSDS 232010Z 01012KT 15/11 A3006 RMK A01 T01500113  RH  082%=      5-min Rain = 0
KSDS 232015Z 01012KT 15/11 A3006 RMK A01 T01510113  RH  081%=      5-min Rain = 0
KSDS 232020Z 01014KT 15/11 A3006 RMK A01 T01530114  RH  080%=      5-min Rain = 0
KSDS 232025Z 02012G17KT 15/11 A3006 RMK A01 T01480113  RH  083%=      5-min Rain = 0
KSDS 232030Z 02015KT 15/11 A3006 RMK A01 T01450112  RH  083%=      5-min Rain = 0
KSDS 232035Z 02014G19KT 14/11 A3006 RMK A01 T01430112  RH  085%=      5-min Rain = 0
KSDS 232040Z 02013G18KT 15/11 A3005 RMK A01 T01450112  RH  084%=      5-min Rain = 0
KSDS 232045Z 02013KT 14/11 A3005 RMK A01 T01440112  RH  084%=      5-min Rain = 0
KSDS 232050Z 03014KT 15/11 A3005 RMK A01 T01460111  RH  082%=      5-min Rain = 0
KSDS 232055Z 03015KT 15/11 A3005 RMK A01 T01450109  RH  082%=      5-min Rain = 0
KSDS 232100Z 03013KT 14/11 A3005 RMK A01 T01430110  RH  083%=      5-min Rain = 0
KSDS 232105Z 02015G20KT 14/11 A3005 RMK A01 T01410110  RH  085%=      5-min Rain = 0
KSDS 232110Z 02014G19KT 14/11 A3005 RMK A01 T01360110  RH  088%=      5-min Rain = 0
KSDS 232115Z 02013G18KT 13/11 A3005 RMK A01 T01340110  RH  088%=      5-min Rain = 0
KSDS 232120Z 01014KT 13/11 A3005 RMK A01 T01320110  RH  090%=      5-min Rain = 0
KSDS 232125Z 02013KT 13/11 A3004 RMK A01 T01320110  RH  090%=      5-min Rain = 0
KSDS 232130Z 02011KT 14/11 A3004 RMK A01 T01360112  RH  089%=      5-min Rain = 0
KSDS 232135Z 03013KT 14/11 A3004 RMK A01 T01430112  RH  084%=      5-min Rain = 0
KSDS 232140Z 02013G19KT 14/11 A3004 RMK A01 T01370108  RH  086%=      5-min Rain = 0
KSDS 232145Z 02012G17KT 14/11 A3004 RMK A01 T01390110  RH  086%=      5-min Rain = 0
KSDS 232150Z 03012KT 14/11 A3004 RMK A01 T01370108  RH  085%=      5-min Rain = 0
KSDS 232155Z 03013KT 14/11 A3004 RMK A01 T01350108  RH  087%=      5-min Rain = 0
KSDS 232200Z 03012G18KT 14/11 A3004 RMK A01 T01380109  RH  085%=      5-min Rain = 0
KSDS 232205Z 02012G18KT 14/11 A3004 RMK A01 T01350106  RH  086%=      5-min Rain = 0
KSDS 232210Z 02012KT 14/11 A3004 RMK A01 T01430109  RH  083%=      5-min Rain = 0
KSDS 232215Z 01012KT 14/11 A3004 RMK A01 T01420107  RH  082%=      5-min Rain = 0
KSDS 232220Z 02014KT 14/11 A3004 RMK A01 T01370106  RH  084%=      5-min Rain = 0
KSDS 232225Z 02015KT 13/11 A3004 RMK A01 T01340105  RH  086%=      5-min Rain = 0
KSDS 232230Z 01014G19KT 13/10 A3004 RMK A01 T01300104  RH  087%=      5-min Rain = 0
KSDS 232235Z 02014KT 13/10 A3004 RMK A01 T01300103  RH  086%=      5-min Rain = 0
KSDS 232240Z 02011G16KT 13/10 A3004 RMK A01 T01310104  RH  086%=      5-min Rain = 0
KSDS 232245Z 02013KT 13/10 A3004 RMK A01 T01330104  RH  085%=      5-min Rain = 0
KSDS 232250Z 02014KT 13/10 A3004 RMK A01 T01310103  RH  086%=      5-min Rain = 0
KSDS 232255Z 02013G18KT 13/10 A3003 RMK A01 T01320104  RH  086%=      5-min Rain = 0
KSDS 232300Z 01014KT 13/10 A3003 RMK A01 T01310102  RH  085%=      5-min Rain = 0
KSDS 232305Z 01014G20KT 14/10 A3003 RMK A01 T01350103  RH  084%=      5-min Rain = 0
KSDS 232310Z 01015KT 13/10 A3003 RMK A01 T01300102  RH  086%=      5-min Rain = 0
KSDS 232315Z 01014G19KT 13/10 A3003 RMK A01 T01290102  RH  086%=      5-min Rain = 0
KSDS 232320Z 00015KT 13/10 A3003 RMK A01 T01270102  RH  087%=      5-min Rain = 0
KSDS 232325Z 01014KT 13/10 A3003 RMK A01 T01290102  RH  087%=      5-min Rain = 0
KSDS 232330Z 01015G20KT 13/10 A3003 RMK A01 T01300101  RH  085%=      5-min Rain = 0
KSDS 232335Z 01014G19KT 13/10 A3003 RMK A01 T01330102  RH  084%=      5-min Rain = 0
KSDS 232340Z 01013G18KT 13/10 A3003 RMK A01 T01340101  RH  083%=      5-min Rain = 0
KSDS 232345Z 01012G17KT 13/10 A3003 RMK A01 T01330100  RH  083%=      5-min Rain = 0
KSDS 232350Z 01012KT 13/10 A3003 RMK A01 T01340100  RH  083%=      5-min Rain = 0
KSDS 232355Z 02013G18KT 13/10 A3003 RMK A01 T01330099  RH  083%=      5-min Rain = 0
KSDS 240000Z 02013KT 13/10 A3003 RMK A01 T01300098  RH  084%=      5-min Rain = 0
KSDS 240005Z 02014G19KT 13/10 A3003 RMK A01 T01310098  RH  083%=      5-min Rain = 0
KSDS 240010Z 02014KT 13/10 A3003 RMK A01 T01310099  RH  084%=      5-min Rain = 0
KSDS 240015Z 02015KT 13/10 A3002 RMK A01 T01300097  RH  083%=      5-min Rain = 0
KSDS 240020Z 02013G18KT 13/10 A3003 RMK A01 T01310096  RH  082%=      5-min Rain = 0
KSDS 240025Z 01012KT 13/10 A3003 RMK A01 T01310095  RH  081%=      5-min Rain = 0
KSDS 240030Z 01013G18KT 13/10 A3003 RMK A01 T01300095  RH  082%=      5-min Rain = 0
KSDS 240035Z 02013KT 13/10 A3003 RMK A01 T01300096  RH  082%=      5-min Rain = 0
KSDS 240040Z 01013KT 13/10 A3003 RMK A01 T01310096  RH  082%=      5-min Rain = 0
KSDS 240045Z 02014G19KT 13/10 A3004 RMK A01 T01290097  RH  083%=      5-min Rain = 0
KSDS 240050Z 02013KT 13/10 A3003 RMK A01 T01280096  RH  083%=      5-min Rain = 0
KSDS 240055Z 02013KT 13/10 A3004 RMK A01 T01290096  RH  083%=      5-min Rain = 0
KSDS 240100Z 02012G17KT 13/10 A3004 RMK A01 T01290096  RH  083%=      5-min Rain = 0
KSDS 240105Z 02012G17KT 13/10 A3003 RMK A01 T01290096  RH  083%=      5-min Rain = 0
KSDS 240110Z 02013KT 13/10 A3003 RMK A01 T01290095  RH  082%=      5-min Rain = 0
KSDS 240115Z 02013G19KT 13/10 A3003 RMK A01 T01280095  RH  083%=      5-min Rain = 0
KSDS 240120Z 02013KT 13/10 A3003 RMK A01 T01270096  RH  084%=      5-min Rain = 0
KSDS 240125Z 03011KT 13/10 A3003 RMK A01 T01260096  RH  085%=      5-min Rain = 0
KSDS 240130Z 03010KT 13/10 A3003 RMK A01 T01260097  RH  085%=      5-min Rain = 0
KSDS 240135Z 02010KT 13/10 A3003 RMK A01 T01250096  RH  085%=      5-min Rain = 0
KSDS 240140Z 02010KT 13/10 A3003 RMK A01 T01250095  RH  084%=      5-min Rain = 0
KSDS 240145Z 03010KT 13/10 A3003 RMK A01 T01250096  RH  085%=      5-min Rain = 0
KSDS 240150Z 03010KT 13/10 A3003 RMK A01 T01250096  RH  085%=      5-min Rain = 0
KSDS 240155Z 03010KT 13/10 A3003 RMK A01 T01250097  RH  086%=      5-min Rain = 0
KSDS 240200Z 02009KT 13/10 A3003 RMK A01 T01250097  RH  085%=      5-min Rain = 0
KSDS 240205Z 02010KT 13/10 A3003 RMK A01 T01250097  RH  085%=      5-min Rain = 0
KSDS 240210Z 02009KT 13/10 A3003 RMK A01 T01260097  RH  086%=      5-min Rain = 0
KSDS 240215Z 03007KT 13/10 A3003 RMK A01 T01250098  RH  086%=      5-min Rain = 0
KSDS 240220Z 03007KT 13/10 A3004 RMK A01 T01250098  RH  086%=      5-min Rain = 0
KSDS 240225Z 03008KT 13/10 A3004 RMK A01 T01250097  RH  086%=      5-min Rain = 0
KSDS 240230Z 02007KT 13/10 A3005 RMK A01 T01250098  RH  086%=      5-min Rain = 0
KSDS 240235Z 02006KT 12/10 A3005 RMK A01 T01240098  RH  087%=      5-min Rain = 0
KSDS 240240Z 01007KT 12/10 A3005 RMK A01 T01230097  RH  087%=      5-min Rain = 0
KSDS 240245Z 01006KT 12/10 A3005 RMK A01 T01230097  RH  087%=      5-min Rain = 0
KSDS 240250Z 01008KT 12/10 A3005 RMK A01 T01230096  RH  086%=      5-min Rain = 0
KSDS 240255Z 01008KT 12/10 A3005 RMK A01 T01230095  RH  086%=      5-min Rain = 0
KSDS 240300Z 00009KT 12/10 A3006 RMK A01 T01230095  RH  086%=      5-min Rain = 0
KSDS 240305Z 00009KT 12/10 A3005 RMK A01 T01220095  RH  086%=      5-min Rain = 0
KSDS 240310Z 01011KT 12/09 A3005 RMK A01 T01210093  RH  086%=      5-min Rain = 0
KSDS 240315Z 01011KT 12/09 A3005 RMK A01 T01200091  RH  085%=      5-min Rain = 0
KSDS 240320Z 01010KT 12/09 A3005 RMK A01 T01180090  RH  086%=      5-min Rain = 0
KSDS 240325Z 00009KT 12/09 A3005 RMK A01 T01160090  RH  087%=      5-min Rain = 0
KSDS 240330Z 00009KT 11/09 A3005 RMK A01 T01140090  RH  088%=      5-min Rain = 0
KSDS 240335Z 00010KT 11/09 A3004 RMK A01 T01120088  RH  088%=      5-min Rain = 0
KSDS 240340Z 00009KT 11/09 A3004 RMK A01 T01110087  RH  087%=      5-min Rain = 0
KSDS 240345Z 01008KT 11/09 A3005 RMK A01 T01110087  RH  087%=      5-min Rain = 0
KSDS 240350Z 03007KT 11/09 A3006 RMK A01 T01100086  RH  088%=      5-min Rain = 0
KSDS 240355Z 03008KT 11/09 A3006 RMK A01 T01090086  RH  088%=      5-min Rain = 0
KSDS 240400Z 03008KT 11/09 A3006 RMK A01 T01090085  RH  088%=      5-min Rain = 0
KSDS 240405Z 03008KT 11/09 A3006 RMK A01 T01080085  RH  088%=      5-min Rain = 0
KSDS 240410Z 02007KT 11/08 A3007 RMK A01 T01080084  RH  087%=      5-min Rain = 0
KSDS 240415Z 03007KT 11/08 A3007 RMK A01 T01080083  RH  087%=      5-min Rain = 0
KSDS 240420Z 03007KT 11/08 A3006 RMK A01 T01080083  RH  087%=      5-min Rain = 0
KSDS 240425Z 03008KT 11/08 A3006 RMK A01 T01080083  RH  087%=      5-min Rain = 0
KSDS 240430Z 04008KT 11/08 A3006 RMK A01 T01070083  RH  088%=      5-min Rain = 0
KSDS 240435Z 05007KT 11/08 A3006 RMK A01 T01060083  RH  088%=      5-min Rain = 0
KSDS 240440Z 04007KT 11/08 A3005 RMK A01 T01050083  RH  089%=      5-min Rain = 0
KSDS 240445Z 05007KT 10/08 A3005 RMK A01 T01030082  RH  090%=      5-min Rain = 0
KSDS 240450Z 04007KT 10/08 A3004 RMK A01 T01020082  RH  090%=      5-min Rain = 0
KSDS 240455Z 04008KT 10/08 A3003 RMK A01 T01010082  RH  091%=      5-min Rain = 0

Page generated in 0.0094 seconds.